createdAt,value
2019-02-23T00:01:04.706Z,10.53
2019-02-23T00:04:06.932Z,9.00
2019-02-23T00:07:09.167Z,10.77
2019-02-23T00:10:11.444Z,10.17
2019-02-23T00:13:13.711Z,10.47
2019-02-23T00:16:15.946Z,11.17
2019-02-23T00:19:24.840Z,10.67
2019-02-23T00:22:20.507Z,9.60
2019-02-23T00:25:22.744Z,9.57
2019-02-23T00:28:24.973Z,10.73
2019-02-23T00:31:27.231Z,10.33
2019-02-23T00:34:29.479Z,10.57
2019-02-23T00:37:31.728Z,9.03
2019-02-23T00:40:33.987Z,9.60
2019-02-23T00:43:36.245Z,10.70
2019-02-23T00:46:38.543Z,10.07
2019-02-23T00:49:40.817Z,10.97
2019-02-23T00:52:43.056Z,10.27
2019-02-23T00:55:45.291Z,10.53
2019-02-23T00:58:47.539Z,9.53
2019-02-23T01:01:49.776Z,11.03
2019-02-23T01:04:52.068Z,10.70
2019-02-23T01:07:54.336Z,8.40
2019-02-23T01:10:58.347Z,9.50
2019-02-23T01:13:58.885Z,10.97
2019-02-23T01:17:01.134Z,9.73
2019-02-23T01:20:03.729Z,8.70
2019-02-23T01:23:06.019Z,8.90
2019-02-23T01:26:08.316Z,10.57
2019-02-23T01:29:10.584Z,9.63
2019-02-23T01:32:12.967Z,9.03
2019-02-23T01:35:15.240Z,9.20
2019-02-23T01:38:17.499Z,10.27
2019-02-23T01:41:19.786Z,10.47
2019-02-23T01:44:22.031Z,10.37
2019-02-23T01:47:24.320Z,10.13
2019-02-23T01:50:26.603Z,10.73
2019-02-23T01:53:28.846Z,10.10
2019-02-23T01:56:31.103Z,10.23
2019-02-23T01:59:33.392Z,9.63
2019-02-23T02:02:35.647Z,9.70
2019-02-23T02:05:37.971Z,8.30
2019-02-23T02:08:40.248Z,10.17
2019-02-23T02:11:42.540Z,10.03
2019-02-23T02:14:44.820Z,11.47
2019-02-23T02:17:47.093Z,11.80
2019-02-23T02:20:49.368Z,12.00
2019-02-23T02:23:51.596Z,11.93
2019-02-23T02:26:53.815Z,10.70
2019-02-23T02:29:56.084Z,11.30
2019-02-23T02:32:58.377Z,12.20
2019-02-23T02:36:00.680Z,11.87
2019-02-23T02:39:04.071Z,11.60
2019-02-23T02:42:06.319Z,11.70
2019-02-23T02:45:09.388Z,12.57
2019-02-23T02:48:11.607Z,13.13
2019-02-23T02:51:13.850Z,13.70
2019-02-23T02:54:16.080Z,13.60
2019-02-23T02:57:18.296Z,15.03
2019-02-23T03:00:20.519Z,13.90
2019-02-23T03:03:22.748Z,13.10
2019-02-23T03:06:25.059Z,14.50
2019-02-23T03:09:27.296Z,14.40
2019-02-23T03:12:29.562Z,15.00
2019-02-23T03:15:31.847Z,13.77
2019-02-23T03:18:34.115Z,13.87
2019-02-23T03:21:36.403Z,14.20
2019-02-23T03:24:38.647Z,14.00
2019-02-23T03:27:41.004Z,13.73
2019-02-23T03:30:43.278Z,13.80
2019-02-23T03:33:45.522Z,14.53
2019-02-23T03:36:47.753Z,14.40
2019-02-23T03:39:50.028Z,14.47
2019-02-23T03:42:52.335Z,14.43
2019-02-23T03:45:54.569Z,13.17
2019-02-23T03:48:56.795Z,15.13
2019-02-23T03:51:59.917Z,14.90
2019-02-23T03:55:02.219Z,13.80
2019-02-23T03:58:04.503Z,14.90
2019-02-23T04:01:06.739Z,12.43
2019-02-23T04:04:08.971Z,13.90
2019-02-23T04:07:11.252Z,13.97
2019-02-23T04:10:13.519Z,13.10
2019-02-23T04:13:15.794Z,14.00
2019-02-23T04:16:18.127Z,13.50
2019-02-23T04:19:20.363Z,11.90
2019-02-23T04:22:22.643Z,13.00
2019-02-23T04:25:24.922Z,12.93
2019-02-23T04:28:27.135Z,12.23
2019-02-23T04:31:29.394Z,11.53
2019-02-23T04:34:31.625Z,12.00
2019-02-23T04:37:33.910Z,11.63
2019-02-23T04:40:36.115Z,11.43
2019-02-23T04:43:38.367Z,10.83
2019-02-23T04:46:40.624Z,11.57
2019-02-23T04:49:49.700Z,11.70
2019-02-23T04:52:51.928Z,11.87
2019-02-23T04:55:54.175Z,11.97
2019-02-23T04:58:56.409Z,11.20
2019-02-23T05:01:58.780Z,11.20
2019-02-23T05:05:01.041Z,12.20
2019-02-23T05:08:03.317Z,11.57
2019-02-23T05:11:05.600Z,10.80
2019-02-23T05:14:07.848Z,9.43
2019-02-23T05:17:10.144Z,10.37
2019-02-23T05:20:12.483Z,10.30
2019-02-23T05:23:14.700Z,10.27
2019-02-23T05:26:16.937Z,9.67
2019-02-23T05:29:19.193Z,10.77
2019-02-23T05:32:21.475Z,10.00
2019-02-23T05:35:23.731Z,10.10
2019-02-23T05:38:26.003Z,9.30
2019-02-23T05:41:28.235Z,10.20
2019-02-23T05:44:30.498Z,8.87
2019-02-23T05:47:32.761Z,9.30
2019-02-23T05:50:35.024Z,9.80
2019-02-23T05:53:37.263Z,9.93
2019-02-23T05:56:39.515Z,9.23
2019-02-23T05:59:41.811Z,8.30
2019-02-23T06:02:45.101Z,8.63
2019-02-23T06:05:46.423Z,8.93
2019-02-23T06:08:48.657Z,8.07
2019-02-23T06:11:50.907Z,8.13
2019-02-23T06:14:53.131Z,7.57
2019-02-23T06:17:55.389Z,8.60
2019-02-23T06:20:57.624Z,8.00
2019-02-23T06:23:59.864Z,7.27
2019-02-23T06:27:02.111Z,7.30
2019-02-23T06:30:05.669Z,8.40
2019-02-23T06:33:07.916Z,7.53
2019-02-23T06:36:10.171Z,8.07
2019-02-23T06:39:12.436Z,7.13
2019-02-23T06:42:14.704Z,7.10
2019-02-23T06:45:16.949Z,7.70
2019-02-23T06:48:33.991Z,8.10
2019-02-23T06:51:36.285Z,6.80
2019-02-23T06:54:38.567Z,6.67
2019-02-23T06:57:40.870Z,7.77
2019-02-23T07:00:43.127Z,7.63
2019-02-23T07:03:45.357Z,6.93
2019-02-23T07:09:55.492Z,6.60
2019-02-23T07:12:57.735Z,7.83
2019-02-23T07:15:59.992Z,7.33
2019-02-23T07:19:02.232Z,8.00
2019-02-23T07:22:14.825Z,7.73
2019-02-23T07:25:06.782Z,7.33
2019-02-23T07:28:10.902Z,7.63
2019-02-23T07:31:11.298Z,7.23
2019-02-23T07:34:13.535Z,7.17
2019-02-23T07:37:15.758Z,7.50
2019-02-23T07:40:17.974Z,6.70
2019-02-23T07:43:20.206Z,6.90
2019-02-23T07:46:22.423Z,6.57
2019-02-23T07:49:24.677Z,7.17
2019-02-23T07:52:26.945Z,6.60
2019-02-23T07:55:29.211Z,7.03
2019-02-23T07:58:31.403Z,8.00
2019-02-23T08:01:33.647Z,6.57
2019-02-23T08:04:35.856Z,7.23
2019-02-23T08:07:39.915Z,6.73
2019-02-23T08:10:40.405Z,7.10
2019-02-23T08:13:42.621Z,7.27
2019-02-23T08:16:44.864Z,6.60
2019-02-23T08:19:47.073Z,6.73
2019-02-23T08:22:49.315Z,6.83
2019-02-23T08:25:51.571Z,6.73
2019-02-23T08:28:53.843Z,6.43
2019-02-23T08:31:56.065Z,6.30
2019-02-23T08:34:58.267Z,6.13
2019-02-23T08:38:00.491Z,6.03
2019-02-23T08:41:02.711Z,6.37
2019-02-23T08:44:04.900Z,6.40
2019-02-23T08:47:07.143Z,6.03
2019-02-23T08:50:10.379Z,5.50
2019-02-23T08:53:12.587Z,5.47
2019-02-23T08:56:14.822Z,5.50
2019-02-23T08:59:17.084Z,5.33
2019-02-23T09:02:19.300Z,4.87
2019-02-23T09:05:21.564Z,4.83
2019-02-23T09:08:23.799Z,4.60
2019-02-23T09:11:26.075Z,4.83
2019-02-23T09:14:28.296Z,4.87
2019-02-23T09:17:30.519Z,4.67
2019-02-23T09:20:32.788Z,4.40
2019-02-23T09:23:35.078Z,4.27
2019-02-23T09:26:37.325Z,4.10
2019-02-23T09:29:39.565Z,3.83
2019-02-23T09:32:41.825Z,3.70
2019-02-23T09:35:44.065Z,3.67
2019-02-23T09:38:46.279Z,4.37
2019-02-23T09:41:48.500Z,4.10
2019-02-23T09:44:50.734Z,3.93
2019-02-23T09:47:52.955Z,3.87
2019-02-23T09:50:55.178Z,3.97
2019-02-23T09:53:57.430Z,3.30
2019-02-23T09:56:59.627Z,3.73
2019-02-23T10:00:01.911Z,4.40
2019-02-23T10:03:04.148Z,3.30
2019-02-23T10:06:06.395Z,4.23
2019-02-23T10:09:08.643Z,5.10
2019-02-23T10:12:10.869Z,4.67
2019-02-23T10:15:13.106Z,4.90
2019-02-23T10:18:15.347Z,5.37
2019-02-23T10:21:17.617Z,4.57
2019-02-23T10:24:19.823Z,5.03
2019-02-23T10:27:22.027Z,4.70
2019-02-23T10:30:24.267Z,4.80
2019-02-23T10:33:26.488Z,4.50
2019-02-23T10:36:28.702Z,4.70
2019-02-23T10:39:30.909Z,4.57
2019-02-23T10:42:33.183Z,5.17
2019-02-23T10:45:35.424Z,4.93
2019-02-23T10:48:37.667Z,4.70
2019-02-23T10:51:39.888Z,4.73
2019-02-23T10:54:42.192Z,5.00
2019-02-23T10:57:44.427Z,5.17
2019-02-23T11:00:46.666Z,5.10
2019-02-23T11:03:48.927Z,4.97
2019-02-23T11:06:51.175Z,4.90
2019-02-23T11:09:53.443Z,5.03
2019-02-23T11:12:55.647Z,5.13
2019-02-23T11:15:57.946Z,5.03
2019-02-23T11:19:00.178Z,5.70
2019-02-23T11:22:02.427Z,5.33
2019-02-23T11:25:05.021Z,4.93
2019-02-23T11:28:07.279Z,5.30
2019-02-23T11:31:09.519Z,5.70
2019-02-23T11:34:11.772Z,5.63
2019-02-23T11:37:14.004Z,5.67
2019-02-23T11:40:16.223Z,5.20
2019-02-23T11:43:18.530Z,5.70
2019-02-23T11:46:20.736Z,5.90
2019-02-23T11:49:22.949Z,5.33
2019-02-23T11:52:25.165Z,5.20
2019-02-23T11:55:27.391Z,6.00
2019-02-23T11:58:29.667Z,5.50
2019-02-23T12:01:31.896Z,6.40
2019-02-23T12:04:34.176Z,5.93
2019-02-23T12:07:36.399Z,5.83
2019-02-23T12:10:38.667Z,6.20
2019-02-23T12:13:40.906Z,6.53
2019-02-23T12:16:43.141Z,6.47
2019-02-23T12:19:45.363Z,6.00
2019-02-23T12:22:47.582Z,6.23
2019-02-23T12:25:49.795Z,5.20
2019-02-23T12:28:52.024Z,5.80
2019-02-23T12:31:54.252Z,6.33
2019-02-23T12:34:56.494Z,5.50
2019-02-23T12:37:58.759Z,6.30
2019-02-23T12:41:00.991Z,5.67
2019-02-23T12:44:03.228Z,6.60
2019-02-23T12:47:05.509Z,6.40
2019-02-23T12:50:07.891Z,6.40
2019-02-23T12:53:10.121Z,6.40
2019-02-23T12:56:12.337Z,6.07
2019-02-23T12:59:14.605Z,5.80
2019-02-23T13:02:16.926Z,6.17
2019-02-23T13:05:19.203Z,6.57
2019-02-23T13:08:21.494Z,6.47
2019-02-23T13:11:23.758Z,5.97
2019-02-23T13:16:37.771Z,6.30
2019-02-23T13:19:59.960Z,6.43
2019-02-23T13:23:12.968Z,6.10
2019-02-23T13:26:28.782Z,5.33
2019-02-23T13:31:44.519Z,5.60
2019-02-23T13:37:08.576Z,5.93
2019-02-23T13:40:28.011Z,5.57
2019-02-23T13:45:51.684Z,5.33
2019-02-23T13:49:07.172Z,5.60
2019-02-23T13:52:20.441Z,4.87
2019-02-23T13:55:51.586Z,5.37
2019-02-23T13:59:04.365Z,5.30
2019-02-23T14:02:37.366Z,5.80
2019-02-23T14:05:46.144Z,5.10
2019-02-23T14:11:04.912Z,5.60
2019-02-23T14:14:18.390Z,5.10
2019-02-23T14:18:20.780Z,5.47
2019-02-23T14:21:33.191Z,4.67
2019-02-23T14:24:50.214Z,4.63
2019-02-23T14:28:06.602Z,4.77
2019-02-23T14:31:31.479Z,4.53
2019-02-23T14:34:49.251Z,4.93
2019-02-23T14:42:06.792Z,4.37
2019-02-23T14:45:41.954Z,4.80
2019-02-23T14:49:59.533Z,4.13
2019-02-23T14:53:40.811Z,3.83
2019-02-23T14:58:59.141Z,4.10
2019-02-23T15:02:11.216Z,4.00
2019-02-23T15:05:23.021Z,4.00
2019-02-23T15:08:40.791Z,3.53
2019-02-23T15:11:58.799Z,3.77
2019-02-23T15:15:14.119Z,4.40
2019-02-23T15:18:45.243Z,3.40
2019-02-23T15:22:05.351Z,3.57
2019-02-23T15:25:20.307Z,3.30
2019-02-23T15:29:22.906Z,3.37
2019-02-23T15:31:52.337Z,2.90
2019-02-23T15:35:12.555Z,3.40
2019-02-23T15:38:25.927Z,3.43
2019-02-23T15:41:41.380Z,3.20
2019-02-23T15:44:55.899Z,3.50
2019-02-23T15:48:07.591Z,3.50
2019-02-23T15:51:09.858Z,3.27
2019-02-23T15:54:12.072Z,3.10
2019-02-23T15:57:14.323Z,2.73
2019-02-23T16:00:16.593Z,3.20
2019-02-23T16:03:18.830Z,3.37
2019-02-23T16:06:21.048Z,3.40
2019-02-23T16:09:23.275Z,2.93
2019-02-23T16:12:25.521Z,2.83
2019-02-23T16:15:27.779Z,2.90
2019-02-23T16:18:29.993Z,3.10
2019-02-23T16:21:32.301Z,2.80
2019-02-23T16:24:34.570Z,2.90
2019-02-23T16:27:36.875Z,2.57
2019-02-23T16:30:39.079Z,2.90
2019-02-23T16:33:41.356Z,2.93
2019-02-23T16:36:43.635Z,2.73
2019-02-23T16:39:45.864Z,2.80
2019-02-23T16:42:48.067Z,2.50
2019-02-23T16:45:50.287Z,2.90
2019-02-23T16:48:52.500Z,2.60
2019-02-23T16:51:54.755Z,2.30
2019-02-23T16:54:56.968Z,2.40
2019-02-23T16:57:59.189Z,1.90
2019-02-23T17:01:04.160Z,2.40
2019-02-23T17:04:03.695Z,2.40
2019-02-23T17:07:05.939Z,2.03
2019-02-23T17:10:08.196Z,2.27
2019-02-23T17:13:10.443Z,2.43
2019-02-23T17:16:12.659Z,2.33
2019-02-23T17:19:14.904Z,2.83
2019-02-23T17:22:17.127Z,2.37
2019-02-23T17:25:19.359Z,2.30
2019-02-23T17:28:21.571Z,2.23
2019-02-23T17:31:23.827Z,2.60
2019-02-23T17:34:26.087Z,2.60
2019-02-23T17:37:28.312Z,2.43
2019-02-23T17:40:30.536Z,2.57
2019-02-23T17:43:32.803Z,3.03
2019-02-23T17:46:35.027Z,2.50
2019-02-23T17:49:37.268Z,2.40
2019-02-23T17:52:39.518Z,2.70
2019-02-23T17:55:41.747Z,2.97
2019-02-23T17:58:43.982Z,2.80
2019-02-23T18:01:46.229Z,2.87
2019-02-23T18:04:48.436Z,2.23
2019-02-23T18:07:50.640Z,2.63
2019-02-23T18:10:52.858Z,2.80
2019-02-23T18:13:55.091Z,2.40
2019-02-23T18:16:57.318Z,2.60
2019-02-23T18:20:01.100Z,2.33
2019-02-23T18:23:01.803Z,2.50
2019-02-23T18:26:04.074Z,2.40
2019-02-23T18:29:07.739Z,2.43
2019-02-23T18:32:08.560Z,2.60
2019-02-23T18:35:10.785Z,2.30
2019-02-23T18:38:12.996Z,2.43
2019-02-23T18:41:15.239Z,2.40
2019-02-23T18:44:17.455Z,2.80
2019-02-23T18:47:19.739Z,2.70
2019-02-23T18:50:21.984Z,3.03
2019-02-23T18:53:24.211Z,2.63
2019-02-23T18:56:29.559Z,2.77
2019-02-23T18:59:28.646Z,3.17
2019-02-23T19:02:30.859Z,2.50
2019-02-23T19:05:33.098Z,2.80
2019-02-23T19:08:35.340Z,2.70
2019-02-23T19:11:37.555Z,2.63
2019-02-23T19:14:39.775Z,2.70
2019-02-23T19:17:41.975Z,3.33
2019-02-23T19:20:44.179Z,2.70
2019-02-23T19:23:46.395Z,3.17
2019-02-23T19:26:48.648Z,2.80
2019-02-23T19:29:50.916Z,2.83
2019-02-23T19:32:53.116Z,2.93
2019-02-23T19:35:55.336Z,3.60
2019-02-23T19:38:57.527Z,2.63
2019-02-23T19:41:59.742Z,2.93
2019-02-23T19:45:02.010Z,2.53
2019-02-23T19:48:04.240Z,2.30
2019-02-23T19:51:08.080Z,2.73
2019-02-23T19:54:10.283Z,2.70
2019-02-23T19:57:12.551Z,3.03
2019-02-23T20:00:14.787Z,2.63
2019-02-23T20:03:17.003Z,2.83
2019-02-23T20:06:19.251Z,3.57
2019-02-23T20:09:21.469Z,3.03
2019-02-23T20:12:23.716Z,3.30
2019-02-23T20:15:25.935Z,2.90
2019-02-23T20:18:28.143Z,2.97
2019-02-23T20:21:30.357Z,2.87
2019-02-23T20:24:32.587Z,3.00
2019-02-23T20:27:34.839Z,2.93
2019-02-23T20:30:37.056Z,2.73
2019-02-23T20:33:39.267Z,3.20
2019-02-23T20:36:41.499Z,2.60
2019-02-23T20:39:43.741Z,2.80
2019-02-23T20:42:45.959Z,3.00
2019-02-23T20:45:48.270Z,3.27
2019-02-23T20:48:50.491Z,3.20
2019-02-23T20:51:52.823Z,3.20
2019-02-23T20:54:55.047Z,3.00
2019-02-23T20:57:57.309Z,3.00
2019-02-23T21:00:59.546Z,2.67
2019-02-23T21:04:01.816Z,2.70
2019-02-23T21:07:04.074Z,2.20
2019-02-23T21:10:06.583Z,2.20
2019-02-23T21:13:08.863Z,2.90
2019-02-23T21:16:11.107Z,2.63
2019-02-23T21:19:13.339Z,3.10
2019-02-23T21:22:15.598Z,1.87
2019-02-23T21:25:17.837Z,2.77
2019-02-23T21:28:20.100Z,2.73
2019-02-23T21:31:22.354Z,2.47
2019-02-23T21:34:24.596Z,2.43
2019-02-23T21:37:26.832Z,2.97
2019-02-23T21:40:29.159Z,2.73
2019-02-23T21:43:31.403Z,2.33
2019-02-23T21:46:33.819Z,2.30
2019-02-23T21:49:36.041Z,3.00
2019-02-23T21:52:38.303Z,2.80
2019-02-23T21:55:40.560Z,2.90
2019-02-23T21:58:42.848Z,2.63
2019-02-23T22:01:45.128Z,2.70
2019-02-23T22:04:47.381Z,2.73
2019-02-23T22:07:49.596Z,3.00
2019-02-23T22:10:51.848Z,2.97
2019-02-23T22:13:54.171Z,2.60
2019-02-23T22:16:56.331Z,2.37
2019-02-23T22:19:58.550Z,2.70
2019-02-23T22:23:00.843Z,3.03
2019-02-23T22:26:03.150Z,2.23
2019-02-23T22:29:05.359Z,2.90
2019-02-23T22:32:07.616Z,2.63
2019-02-23T22:35:09.875Z,3.20
2019-02-23T22:38:12.116Z,3.00
2019-02-23T22:41:14.339Z,2.67
2019-02-23T22:44:16.579Z,2.67
2019-02-23T22:47:18.843Z,2.90
2019-02-23T22:50:21.060Z,2.87
2019-02-23T22:53:23.307Z,2.50
2019-02-23T22:56:25.555Z,2.47
2019-02-23T22:59:27.799Z,2.53
2019-02-23T23:02:30.075Z,2.70
2019-02-23T23:05:32.327Z,2.77
2019-02-23T23:08:34.603Z,2.70
2019-02-23T23:11:36.839Z,2.73
2019-02-23T23:14:39.180Z,2.70
2019-02-23T23:17:41.397Z,2.50
2019-02-23T23:20:43.622Z,2.70
2019-02-23T23:23:45.852Z,2.90
2019-02-23T23:26:48.060Z,2.60
2019-02-23T23:29:50.308Z,2.83
2019-02-23T23:32:52.551Z,2.37
2019-02-23T23:35:54.784Z,3.03
2019-02-23T23:38:57.064Z,2.67
2019-02-23T23:41:59.316Z,2.80
2019-02-23T23:45:01.590Z,2.93
2019-02-23T23:48:03.866Z,2.57
2019-02-23T23:51:06.087Z,2.70
2019-02-23T23:54:08.361Z,2.87
2019-02-23T23:57:10.615Z,2.73
